Terminal Aerodrome Forecast
Issued by NWS

Home | Current Version | Previous Version | Text Only | Print | Product List | Glossary On
Versions: 1 2 3 4 5 6 7 8 9 10 11 12 13 14 15 16 17 18 19 20 21 22 23 24 25 26 27 28 29 30 31 32 33
000
FTUS41 KOKX 011731
TAFGON
TAF
KGON 011731Z 0118/0218 04013G20KT P6SM -DZ BKN015 OVC025
     FM012100 03010KT 6SM -DZ BR OVC015
     FM020800 VRB05KT 5SM -DZ BR OVC004
     FM021300 04006KT 4SM -DZ BR OVC007=

USA.gov is the U.S. government's official web portal to all federal, state and local government web resources and services.